sensor_id;sensor_type;location;lat;lon;timestamp;pressure;altitude;pressure_sealevel;temperature;humidity
62864;BME280;48954;59.950;11.014;2023-05-25T00:01:02;100035.41;;;9.78;42.94
62864;BME280;48954;59.950;11.014;2023-05-25T00:03:30;100034.23;;;9.77;42.73
62864;BME280;48954;59.950;11.014;2023-05-25T00:05:57;100042.52;;;9.76;42.89
62864;BME280;48954;59.950;11.014;2023-05-25T00:08:34;100046.15;;;9.75;42.96
62864;BME280;48954;59.950;11.014;2023-05-25T00:11:00;100050.99;;;9.73;43.26
62864;BME280;48954;59.950;11.014;2023-05-25T00:13:27;100053.43;;;9.71;42.99
62864;BME280;48954;59.950;11.014;2023-05-25T00:15:53;100051.35;;;9.67;43.44
62864;BME280;48954;59.950;11.014;2023-05-25T00:18:20;100060.96;;;9.63;43.51
62864;BME280;48954;59.950;11.014;2023-05-25T00:20:46;100058.91;;;9.60;43.55
62864;BME280;48954;59.950;11.014;2023-05-25T00:23:13;100056.95;;;9.55;43.41
62864;BME280;48954;59.950;11.014;2023-05-25T00:25:40;100059.02;;;9.52;43.78
62864;BME280;48954;59.950;11.014;2023-05-25T00:28:06;100056.53;;;9.47;43.65
62864;BME280;48954;59.950;11.014;2023-05-25T00:30:32;100059.98;;;9.45;43.96
62864;BME280;48954;59.950;11.014;2023-05-25T00:33:00;100064.36;;;9.40;44.04
62864;BME280;48954;59.950;11.014;2023-05-25T00:35:26;100067.30;;;9.36;44.08
62864;BME280;48954;59.950;11.014;2023-05-25T00:37:53;100065.36;;;9.31;44.39
62864;BME280;48954;59.950;11.014;2023-05-25T00:40:19;100065.98;;;9.26;44.22
62864;BME280;48954;59.950;11.014;2023-05-25T00:42:46;100073.38;;;9.22;44.31
62864;BME280;48954;59.950;11.014;2023-05-25T00:45:13;100072.65;;;9.19;44.55
62864;BME280;48954;59.950;11.014;2023-05-25T00:47:41;100075.83;;;9.16;44.34
62864;BME280;48954;59.950;11.014;2023-05-25T00:50:14;100075.95;;;9.12;44.40
62864;BME280;48954;59.950;11.014;2023-05-25T00:52:41;100084.18;;;9.08;44.60
62864;BME280;48954;59.950;11.014;2023-05-25T00:55:09;100090.98;;;9.04;44.23
62864;BME280;48954;59.950;11.014;2023-05-25T00:57:38;100091.54;;;9.03;44.36
62864;BME280;48954;59.950;11.014;2023-05-25T01:00:07;100093.27;;;9.01;44.55
62864;BME280;48954;59.950;11.014;2023-05-25T01:02:34;100094.06;;;8.99;44.61
62864;BME280;48954;59.950;11.014;2023-05-25T01:05:01;100091.48;;;8.96;44.75
62864;BME280;48954;59.950;11.014;2023-05-25T01:07:31;100085.41;;;8.92;44.58
62864;BME280;48954;59.950;11.014;2023-05-25T01:10:01;100083.89;;;8.89;44.87
62864;BME280;48954;59.950;11.014;2023-05-25T01:12:35;100088.17;;;8.86;44.77
62864;BME280;48954;59.950;11.014;2023-05-25T01:15:04;100082.95;;;8.83;44.96
62864;BME280;48954;59.950;11.014;2023-05-25T01:17:30;100076.67;;;8.80;44.89
62864;BME280;48954;59.950;11.014;2023-05-25T01:19:57;100086.17;;;8.78;45.01
62864;BME280;48954;59.950;11.014;2023-05-25T01:22:27;100089.08;;;8.74;44.94
62864;BME280;48954;59.950;11.014;2023-05-25T01:25:01;100088.98;;;8.71;44.83
62864;BME280;48954;59.950;11.014;2023-05-25T01:27:44;100087.38;;;8.68;44.89
62864;BME280;48954;59.950;11.014;2023-05-25T01:30:14;100086.59;;;8.66;44.95
62864;BME280;48954;59.950;11.014;2023-05-25T01:32:42;100090.47;;;8.62;45.11
62864;BME280;48954;59.950;11.014;2023-05-25T01:35:10;100089.16;;;8.59;45.20
62864;BME280;48954;59.950;11.014;2023-05-25T01:37:38;100085.98;;;8.55;45.56
62864;BME280;48954;59.950;11.014;2023-05-25T01:40:10;100086.80;;;8.51;45.39
62864;BME280;48954;59.950;11.014;2023-05-25T01:42:37;100080.77;;;8.48;45.53
62864;BME280;48954;59.950;11.014;2023-05-25T01:45:04;100077.92;;;8.44;45.61
62864;BME280;48954;59.950;11.014;2023-05-25T01:53:25;100074.87;;;8.32;45.54
62864;BME280;48954;59.950;11.014;2023-05-25T01:56:06;100080.60;;;8.31;45.38
62864;BME280;48954;59.950;11.014;2023-05-25T01:58:38;100093.65;;;8.30;45.58
62864;BME280;48954;59.950;11.014;2023-05-25T02:01:07;100088.90;;;8.26;45.91
62864;BME280;48954;59.950;11.014;2023-05-25T02:03:36;100092.24;;;8.23;45.86
62864;BME280;48954;59.950;11.014;2023-05-25T02:06:03;100085.64;;;8.19;45.70
62864;BME280;48954;59.950;11.014;2023-05-25T02:08:30;100080.59;;;8.15;45.76
62864;BME280;48954;59.950;11.014;2023-05-25T02:10:57;100090.65;;;8.14;45.57
62864;BME280;48954;59.950;11.014;2023-05-25T02:13:23;100089.64;;;8.12;45.75
62864;BME280;48954;59.950;11.014;2023-05-25T02:15:50;100094.06;;;8.09;45.61
62864;BME280;48954;59.950;11.014;2023-05-25T02:18:16;100095.48;;;8.08;45.63
62864;BME280;48954;59.950;11.014;2023-05-25T02:20:43;100094.99;;;8.05;45.87
62864;BME280;48954;59.950;11.014;2023-05-25T02:23:10;100093.63;;;8.04;45.70
62864;BME280;48954;59.950;11.014;2023-05-25T02:25:37;100092.13;;;8.04;45.81
62864;BME280;48954;59.950;11.014;2023-05-25T02:28:03;100089.84;;;8.03;45.72
62864;BME280;48954;59.950;11.014;2023-05-25T02:30:30;100091.41;;;8.03;45.82
62864;BME280;48954;59.950;11.014;2023-05-25T02:32:56;100086.59;;;8.02;45.78
62864;BME280;48954;59.950;11.014;2023-05-25T02:35:23;100085.17;;;8.02;45.74
62864;BME280;48954;59.950;11.014;2023-05-25T02:37:49;100086.56;;;8.01;45.64
62864;BME280;48954;59.950;11.014;2023-05-25T02:40:17;100088.23;;;7.98;45.95
62864;BME280;48954;59.950;11.014;2023-05-25T02:42:44;100095.62;;;7.95;45.80
62864;BME280;48954;59.950;11.014;2023-05-25T02:45:10;100095.05;;;7.94;45.96
62864;BME280;48954;59.950;11.014;2023-05-25T02:47:37;100095.42;;;7.92;45.95
62864;BME280;48954;59.950;11.014;2023-05-25T02:50:04;100103.85;;;7.93;46.05
62864;BME280;48954;59.950;11.014;2023-05-25T02:52:30;100103.31;;;7.94;46.02
62864;BME280;48954;59.950;11.014;2023-05-25T02:54:57;100102.61;;;7.94;45.87
62864;BME280;48954;59.950;11.014;2023-05-25T02:57:23;100097.70;;;7.92;45.85
62864;BME280;48954;59.950;11.014;2023-05-25T02:59:50;100105.55;;;7.95;45.61
62864;BME280;48954;59.950;11.014;2023-05-25T03:02:16;100111.77;;;7.95;45.86
62864;BME280;48954;59.950;11.014;2023-05-25T03:04:43;100122.71;;;7.95;45.83
62864;BME280;48954;59.950;11.014;2023-05-25T03:07:11;100122.14;;;7.95;45.70
62864;BME280;48954;59.950;11.014;2023-05-25T03:09:38;100117.89;;;7.94;46.03
62864;BME280;48954;59.950;11.014;2023-05-25T03:12:04;100118.65;;;7.96;45.94
62864;BME280;48954;59.950;11.014;2023-05-25T03:14:31;100115.60;;;7.96;46.17
62864;BME280;48954;59.950;11.014;2023-05-25T03:16:57;100120.64;;;7.97;45.97
62864;BME280;48954;59.950;11.014;2023-05-25T03:19:24;100119.26;;;7.97;46.20
62864;BME280;48954;59.950;11.014;2023-05-25T03:21:50;100117.27;;;7.96;46.19
62864;BME280;48954;59.950;11.014;2023-05-25T03:24:17;100116.16;;;7.94;46.21
62864;BME280;48954;59.950;11.014;2023-05-25T03:26:43;100116.23;;;7.92;46.37
62864;BME280;48954;59.950;11.014;2023-05-25T03:29:10;100115.23;;;7.89;46.48
62864;BME280;48954;59.950;11.014;2023-05-25T03:31:37;100124.67;;;7.87;46.56
62864;BME280;48954;59.950;11.014;2023-05-25T03:34:03;100130.12;;;7.88;46.56
62864;BME280;48954;59.950;11.014;2023-05-25T03:36:30;100141.95;;;7.88;46.46
62864;BME280;48954;59.950;11.014;2023-05-25T03:38:56;100151.29;;;7.89;46.93
62864;BME280;48954;59.950;11.014;2023-05-25T03:41:23;100152.83;;;7.91;46.63
62864;BME280;48954;59.950;11.014;2023-05-25T03:43:49;100149.89;;;7.92;46.52
62864;BME280;48954;59.950;11.014;2023-05-25T03:46:16;100147.23;;;7.93;46.63
62864;BME280;48954;59.950;11.014;2023-05-25T03:48:42;100152.67;;;7.95;46.43
62864;BME280;48954;59.950;11.014;2023-05-25T03:51:09;100149.70;;;7.99;46.33
62864;BME280;48954;59.950;11.014;2023-05-25T03:53:35;100156.40;;;8.08;46.18
62864;BME280;48954;59.950;11.014;2023-05-25T03:56:02;100158.61;;;8.19;45.94
62864;BME280;48954;59.950;11.014;2023-05-25T03:58:28;100161.64;;;8.29;45.92
62864;BME280;48954;59.950;11.014;2023-05-25T04:00:55;100165.61;;;8.36;45.71
62864;BME280;48954;59.950;11.014;2023-05-25T04:03:21;100161.14;;;8.41;45.52
62864;BME280;48954;59.950;11.014;2023-05-25T04:05:48;100159.48;;;8.48;45.48
62864;BME280;48954;59.950;11.014;2023-05-25T04:08:20;100162.55;;;8.52;45.49
62864;BME280;48954;59.950;11.014;2023-05-25T04:10:46;100166.77;;;8.56;45.39
62864;BME280;48954;59.950;11.014;2023-05-25T04:13:13;100179.02;;;8.61;45.50
62864;BME280;48954;59.950;11.014;2023-05-25T04:15:39;100184.54;;;8.64;45.47
62864;BME280;48954;59.950;11.014;2023-05-25T04:18:06;100177.68;;;8.67;45.59
62864;BME280;48954;59.950;11.014;2023-05-25T04:20:33;100180.27;;;8.70;45.59
62864;BME280;48954;59.950;11.014;2023-05-25T04:22:59;100172.59;;;8.72;45.38
62864;BME280;48954;59.950;11.014;2023-05-25T04:25:26;100172.02;;;8.74;45.57
62864;BME280;48954;59.950;11.014;2023-05-25T04:27:53;100178.73;;;8.75;45.57
62864;BME280;48954;59.950;11.014;2023-05-25T04:30:19;100183.77;;;8.79;45.55
62864;BME280;48954;59.950;11.014;2023-05-25T04:32:46;100174.46;;;8.82;45.67
62864;BME280;48954;59.950;11.014;2023-05-25T04:35:12;100178.88;;;8.87;45.49
62864;BME280;48954;59.950;11.014;2023-05-25T04:37:40;100180.68;;;8.91;45.42
62864;BME280;48954;59.950;11.014;2023-05-25T04:40:07;100177.84;;;8.96;45.07
62864;BME280;48954;59.950;11.014;2023-05-25T04:42:34;100179.58;;;9.01;45.10
62864;BME280;48954;59.950;11.014;2023-05-25T04:45:01;100179.45;;;9.05;45.20
62864;BME280;48954;59.950;11.014;2023-05-25T04:47:27;100184.17;;;9.09;45.14
62864;BME280;48954;59.950;11.014;2023-05-25T04:49:54;100187.90;;;9.14;44.86
62864;BME280;48954;59.950;11.014;2023-05-25T04:52:20;100186.64;;;9.18;44.61
62864;BME280;48954;59.950;11.014;2023-05-25T04:54:46;100190.05;;;9.24;44.79
62864;BME280;48954;59.950;11.014;2023-05-25T04:57:15;100193.73;;;9.30;44.57
62864;BME280;48954;59.950;11.014;2023-05-25T04:59:42;100195.73;;;9.37;44.70
62864;BME280;48954;59.950;11.014;2023-05-25T05:02:08;100192.95;;;9.42;44.68
62864;BME280;48954;59.950;11.014;2023-05-25T05:04:35;100191.60;;;9.49;44.37
62864;BME280;48954;59.950;11.014;2023-05-25T05:07:02;100198.17;;;9.57;44.41
62864;BME280;48954;59.950;11.014;2023-05-25T05:09:28;100196.31;;;9.66;44.22
62864;BME280;48954;59.950;11.014;2023-05-25T05:11:55;100186.64;;;9.75;44.15
62864;BME280;48954;59.950;11.014;2023-05-25T05:14:21;100183.96;;;9.84;43.84
62864;BME280;48954;59.950;11.014;2023-05-25T05:16:47;100181.19;;;9.93;43.51
62864;BME280;48954;59.950;11.014;2023-05-25T05:19:14;100185.80;;;10.02;43.70
62864;BME280;48954;59.950;11.014;2023-05-25T05:21:40;100177.10;;;10.10;43.41
62864;BME280;48954;59.950;11.014;2023-05-25T05:24:07;100180.91;;;10.17;43.05
62864;BME280;48954;59.950;11.014;2023-05-25T05:26:33;100184.83;;;10.23;42.99
62864;BME280;48954;59.950;11.014;2023-05-25T05:29:00;100187.11;;;10.29;42.73
62864;BME280;48954;59.950;11.014;2023-05-25T05:31:26;100197.23;;;10.35;42.72
62864;BME280;48954;59.950;11.014;2023-05-25T05:33:53;100202.88;;;10.38;42.72
62864;BME280;48954;59.950;11.014;2023-05-25T05:36:19;100212.50;;;10.42;42.67
62864;BME280;48954;59.950;11.014;2023-05-25T05:38:46;100210.56;;;10.49;42.65
62864;BME280;48954;59.950;11.014;2023-05-25T05:41:13;100210.67;;;10.60;42.53
62864;BME280;48954;59.950;11.014;2023-05-25T05:43:40;100209.89;;;10.70;42.50
62864;BME280;48954;59.950;11.014;2023-05-25T05:46:08;100209.70;;;10.78;42.23
62864;BME280;48954;59.950;11.014;2023-05-25T05:48:36;100215.51;;;10.83;42.20
62864;BME280;48954;59.950;11.014;2023-05-25T05:51:04;100221.36;;;10.92;42.22
62864;BME280;48954;59.950;11.014;2023-05-25T05:53:31;100221.31;;;11.05;42.08
62864;BME280;48954;59.950;11.014;2023-05-25T05:55:58;100218.60;;;11.15;41.79
62864;BME280;48954;59.950;11.014;2023-05-25T05:58:24;100216.63;;;11.26;41.61
62864;BME280;48954;59.950;11.014;2023-05-25T06:00:52;100211.51;;;11.38;41.48
62864;BME280;48954;59.950;11.014;2023-05-25T06:03:19;100211.27;;;11.47;41.50
62864;BME280;48954;59.950;11.014;2023-05-25T06:05:46;100208.96;;;11.64;41.44
62864;BME280;48954;59.950;11.014;2023-05-25T06:08:13;100206.94;;;11.77;41.11
62864;BME280;48954;59.950;11.014;2023-05-25T06:10:40;100204.37;;;11.90;40.88
62864;BME280;48954;59.950;11.014;2023-05-25T06:13:06;100209.80;;;11.98;40.55
62864;BME280;48954;59.950;11.014;2023-05-25T06:15:34;100208.57;;;12.05;39.94
62864;BME280;48954;59.950;11.014;2023-05-25T06:18:00;100215.36;;;12.05;39.41
62864;BME280;48954;59.950;11.014;2023-05-25T06:20:29;100207.42;;;12.06;39.06
62864;BME280;48954;59.950;11.014;2023-05-25T06:23:02;100217.05;;;12.14;39.08
62864;BME280;48954;59.950;11.014;2023-05-25T06:25:29;100213.55;;;12.26;38.82
62864;BME280;48954;59.950;11.014;2023-05-25T06:27:57;100217.04;;;12.30;38.34
62864;BME280;48954;59.950;11.014;2023-05-25T06:30:24;100216.88;;;12.34;38.19
62864;BME280;48954;59.950;11.014;2023-05-25T06:32:50;100210.56;;;12.40;37.95
62864;BME280;48954;59.950;11.014;2023-05-25T06:35:17;100213.96;;;12.38;37.41
62864;BME280;48954;59.950;11.014;2023-05-25T06:37:47;100234.55;;;12.42;37.65
62864;BME280;48954;59.950;11.014;2023-05-25T06:40:15;100241.55;;;12.48;37.37
62864;BME280;48954;59.950;11.014;2023-05-25T06:42:42;100238.21;;;12.53;37.21
62864;BME280;48954;59.950;11.014;2023-05-25T06:45:08;100238.23;;;12.65;37.50
62864;BME280;48954;59.950;11.014;2023-05-25T06:47:36;100245.31;;;12.76;37.18
62864;BME280;48954;59.950;11.014;2023-05-25T06:50:03;100254.48;;;12.84;37.41
62864;BME280;48954;59.950;11.014;2023-05-25T06:52:29;100253.39;;;12.93;37.17
62864;BME280;48954;59.950;11.014;2023-05-25T06:55:01;100264.44;;;12.93;37.22
62864;BME280;48954;59.950;11.014;2023-05-25T06:57:28;100267.77;;;13.02;37.03
62864;BME280;48954;59.950;11.014;2023-05-25T07:00:00;100274.66;;;13.17;36.98
62864;BME280;48954;59.950;11.014;2023-05-25T07:02:28;100265.27;;;13.25;36.84
62864;BME280;48954;59.950;11.014;2023-05-25T07:04:54;100259.59;;;13.24;36.44
62864;BME280;48954;59.950;11.014;2023-05-25T07:07:21;100269.42;;;13.18;36.11
62864;BME280;48954;59.950;11.014;2023-05-25T07:09:47;100280.34;;;13.14;36.11
62864;BME280;48954;59.950;11.014;2023-05-25T07:12:14;100283.09;;;13.16;36.05
62864;BME280;48954;59.950;11.014;2023-05-25T07:14:41;100291.63;;;13.20;35.93
62864;BME280;48954;59.950;11.014;2023-05-25T07:17:08;100283.99;;;13.29;35.84
62864;BME280;48954;59.950;11.014;2023-05-25T07:19:35;100281.45;;;13.32;35.45
62864;BME280;48954;59.950;11.014;2023-05-25T07:22:02;100288.32;;;13.37;35.37
62864;BME280;48954;59.950;11.014;2023-05-25T07:24:28;100296.17;;;13.42;35.11
62864;BME280;48954;59.950;11.014;2023-05-25T07:26:55;100295.62;;;13.46;35.01
62864;BME280;48954;59.950;11.014;2023-05-25T07:29:21;100296.05;;;13.48;34.75
62864;BME280;48954;59.950;11.014;2023-05-25T07:31:48;100294.02;;;13.49;34.51
62864;BME280;48954;59.950;11.014;2023-05-25T07:34:14;100304.37;;;13.46;34.37
62864;BME280;48954;59.950;11.014;2023-05-25T07:36:41;100307.10;;;13.41;34.69
62864;BME280;48954;59.950;11.014;2023-05-25T07:39:07;100303.14;;;13.43;34.58
62864;BME280;48954;59.950;11.014;2023-05-25T07:41:34;100299.04;;;13.55;34.60
62864;BME280;48954;59.950;11.014;2023-05-25T07:44:00;100301.03;;;13.70;34.50
62864;BME280;48954;59.950;11.014;2023-05-25T07:46:27;100305.34;;;13.72;34.44
62864;BME280;48954;59.950;11.014;2023-05-25T07:48:53;100311.57;;;13.76;34.52
62864;BME280;48954;59.950;11.014;2023-05-25T07:51:20;100314.96;;;13.84;34.13
62864;BME280;48954;59.950;11.014;2023-05-25T07:53:46;100311.48;;;13.75;33.55
62864;BME280;48954;59.950;11.014;2023-05-25T07:56:13;100310.77;;;13.71;33.42
62864;BME280;48954;59.950;11.014;2023-05-25T07:58:40;100316.61;;;13.71;33.48
62864;BME280;48954;59.950;11.014;2023-05-25T08:01:06;100311.41;;;13.76;33.69
62864;BME280;48954;59.950;11.014;2023-05-25T08:03:33;100320.47;;;13.83;33.61
62864;BME280;48954;59.950;11.014;2023-05-25T08:06:00;100326.48;;;13.92;33.00
62864;BME280;48954;59.950;11.014;2023-05-25T08:08:37;100327.46;;;14.08;33.58
62864;BME280;48954;59.950;11.014;2023-05-25T08:11:03;100323.61;;;14.22;33.20
62864;BME280;48954;59.950;11.014;2023-05-25T08:13:30;100324.29;;;14.17;33.22
62864;BME280;48954;59.950;11.014;2023-05-25T08:15:56;100336.58;;;14.18;33.07
62864;BME280;48954;59.950;11.014;2023-05-25T08:18:23;100337.54;;;14.14;32.53
62864;BME280;48954;59.950;11.014;2023-05-25T08:20:49;100344.82;;;14.15;32.78
62864;BME280;48954;59.950;11.014;2023-05-25T08:23:16;100341.54;;;14.27;32.85
62864;BME280;48954;59.950;11.014;2023-05-25T08:25:43;100343.39;;;14.38;32.55
62864;BME280;48954;59.950;11.014;2023-05-25T08:28:10;100338.20;;;14.44;32.69
62864;BME280;48954;59.950;11.014;2023-05-25T08:30:36;100336.08;;;14.54;32.34
62864;BME280;48954;59.950;11.014;2023-05-25T08:33:03;100340.67;;;14.49;32.19
62864;BME280;48954;59.950;11.014;2023-05-25T08:35:29;100328.88;;;14.54;32.62
62864;BME280;48954;59.950;11.014;2023-05-25T08:37:56;100325.67;;;14.77;32.59
62864;BME280;48954;59.950;11.014;2023-05-25T08:40:25;100333.64;;;14.98;32.76
62864;BME280;48954;59.950;11.014;2023-05-25T08:42:52;100331.67;;;15.22;32.66
62864;BME280;48954;59.950;11.014;2023-05-25T08:45:19;100328.36;;;15.36;32.43
62864;BME280;48954;59.950;11.014;2023-05-25T08:47:47;100321.96;;;15.44;32.33
62864;BME280;48954;59.950;11.014;2023-05-25T08:50:15;100322.41;;;15.42;32.05
62864;BME280;48954;59.950;11.014;2023-05-25T08:52:44;100315.81;;;15.48;32.29
62864;BME280;48954;59.950;11.014;2023-05-25T08:55:11;100307.86;;;15.57;32.25
62864;BME280;48954;59.950;11.014;2023-05-25T08:57:54;100309.83;;;15.62;32.27
62864;BME280;48954;59.950;11.014;2023-05-25T09:00:41;100306.61;;;15.72;31.70
62864;BME280;48954;59.950;11.014;2023-05-25T09:03:16;100304.98;;;15.83;31.63
62864;BME280;48954;59.950;11.014;2023-05-25T09:05:43;100296.79;;;15.97;32.13
62864;BME280;48954;59.950;11.014;2023-05-25T09:08:10;100300.11;;;16.15;31.64
62864;BME280;48954;59.950;11.014;2023-05-25T09:10:38;100309.23;;;16.15;31.06
62864;BME280;48954;59.950;11.014;2023-05-25T09:13:05;100306.69;;;16.22;31.12
62864;BME280;48954;59.950;11.014;2023-05-25T09:15:32;100301.43;;;16.30;31.59
62864;BME280;48954;59.950;11.014;2023-05-25T09:18:04;100297.50;;;16.35;31.37
62864;BME280;48954;59.950;11.014;2023-05-25T09:20:30;100302.77;;;16.39;30.91
62864;BME280;48954;59.950;11.014;2023-05-25T09:22:57;100300.65;;;16.31;30.65
62864;BME280;48954;59.950;11.014;2023-05-25T09:25:25;100302.58;;;16.25;30.64
62864;BME280;48954;59.950;11.014;2023-05-25T09:27:52;100307.58;;;16.27;30.67
62864;BME280;48954;59.950;11.014;2023-05-25T09:30:19;100313.43;;;16.33;30.68
62864;BME280;48954;59.950;11.014;2023-05-25T09:32:46;100314.30;;;16.42;30.36
62864;BME280;48954;59.950;11.014;2023-05-25T09:35:14;100312.86;;;16.42;30.14
62864;BME280;48954;59.950;11.014;2023-05-25T09:37:41;100315.17;;;16.41;29.93
62864;BME280;48954;59.950;11.014;2023-05-25T09:40:09;100303.00;;;16.40;29.50
62864;BME280;48954;59.950;11.014;2023-05-25T09:42:36;100304.82;;;16.27;29.16
62864;BME280;48954;59.950;11.014;2023-05-25T09:45:04;100295.14;;;16.18;29.47
62864;BME280;48954;59.950;11.014;2023-05-25T09:47:35;100306.17;;;16.10;29.39
62864;BME280;48954;59.950;11.014;2023-05-25T09:50:02;100303.31;;;16.07;29.41
62864;BME280;48954;59.950;11.014;2023-05-25T09:52:30;100307.96;;;16.15;29.11
62864;BME280;48954;59.950;11.014;2023-05-25T09:54:56;100307.10;;;16.15;28.70
62864;BME280;48954;59.950;11.014;2023-05-25T09:57:22;100308.64;;;16.10;28.58
62864;BME280;48954;59.950;11.014;2023-05-25T09:59:49;100312.06;;;16.13;28.31
62864;BME280;48954;59.950;11.014;2023-05-25T10:02:15;100320.80;;;16.21;28.26
62864;BME280;48954;59.950;11.014;2023-05-25T10:04:42;100321.12;;;16.24;27.62
62864;BME280;48954;59.950;11.014;2023-05-25T10:07:08;100321.61;;;16.26;27.70
62864;BME280;48954;59.950;11.014;2023-05-25T10:09:39;100319.85;;;16.32;27.93
62864;BME280;48954;59.950;11.014;2023-05-25T10:12:07;100319.88;;;16.37;27.78
62864;BME280;48954;59.950;11.014;2023-05-25T10:14:37;100334.50;;;16.50;28.24
62864;BME280;48954;59.950;11.014;2023-05-25T10:17:05;100324.73;;;16.58;27.92
62864;BME280;48954;59.950;11.014;2023-05-25T10:19:45;100307.88;;;16.54;28.16
62864;BME280;48954;59.950;11.014;2023-05-25T10:22:15;100315.86;;;16.51;28.08
62864;BME280;48954;59.950;11.014;2023-05-25T10:24:54;100324.05;;;16.53;28.22
62864;BME280;48954;59.950;11.014;2023-05-25T10:27:24;100319.73;;;16.48;27.75
62864;BME280;48954;59.950;11.014;2023-05-25T10:29:51;100323.97;;;16.42;27.78
62864;BME280;48954;59.950;11.014;2023-05-25T10:32:18;100325.68;;;16.39;27.94
62864;BME280;48954;59.950;11.014;2023-05-25T10:34:45;100318.83;;;16.43;27.70
62864;BME280;48954;59.950;11.014;2023-05-25T10:37:13;100309.97;;;16.36;27.75
62864;BME280;48954;59.950;11.014;2023-05-25T10:39:44;100304.75;;;16.38;27.84
62864;BME280;48954;59.950;11.014;2023-05-25T10:42:11;100296.39;;;16.36;27.55
62864;BME280;48954;59.950;11.014;2023-05-25T10:44:40;100303.95;;;16.38;27.92
62864;BME280;48954;59.950;11.014;2023-05-25T10:47:08;100301.81;;;16.50;27.82
62864;BME280;48954;59.950;11.014;2023-05-25T10:49:53;100303.23;;;16.57;27.52
62864;BME280;48954;59.950;11.014;2023-05-25T10:52:20;100292.30;;;16.69;27.33
62864;BME280;48954;59.950;11.014;2023-05-25T10:54:47;100292.30;;;16.84;27.10
62864;BME280;48954;59.950;11.014;2023-05-25T10:57:20;100288.27;;;16.88;27.17
62864;BME280;48954;59.950;11.014;2023-05-25T10:59:48;100297.73;;;16.87;27.22
62864;BME280;48954;59.950;11.014;2023-05-25T11:02:16;100315.65;;;16.86;26.74
62864;BME280;48954;59.950;11.014;2023-05-25T11:04:46;100318.98;;;16.85;26.76
62864;BME280;48954;59.950;11.014;2023-05-25T11:07:16;100326.92;;;16.85;26.50
62864;BME280;48954;59.950;11.014;2023-05-25T11:09:55;100328.74;;;16.84;26.71
62864;BME280;48954;59.950;11.014;2023-05-25T11:12:22;100326.55;;;16.90;26.77
62864;BME280;48954;59.950;11.014;2023-05-25T11:15:08;100328.55;;;17.10;26.63
62864;BME280;48954;59.950;11.014;2023-05-25T11:17:43;100325.23;;;17.27;26.69
62864;BME280;48954;59.950;11.014;2023-05-25T11:20:20;100313.79;;;17.24;27.03
62864;BME280;48954;59.950;11.014;2023-05-25T11:22:49;100315.60;;;17.22;26.67
62864;BME280;48954;59.950;11.014;2023-05-25T11:25:38;100321.96;;;17.47;26.53
62864;BME280;48954;59.950;11.014;2023-05-25T11:28:08;100306.90;;;17.72;26.63
62864;BME280;48954;59.950;11.014;2023-05-25T11:30:35;100313.41;;;17.74;27.02
62864;BME280;48954;59.950;11.014;2023-05-25T11:33:02;100312.96;;;17.61;26.68
62864;BME280;48954;59.950;11.014;2023-05-25T11:35:32;100316.16;;;17.46;26.78
62864;BME280;48954;59.950;11.014;2023-05-25T11:37:59;100318.68;;;17.41;26.94
62864;BME280;48954;59.950;11.014;2023-05-25T11:40:29;100322.75;;;17.44;26.80
62864;BME280;48954;59.950;11.014;2023-05-25T11:42:56;100318.19;;;17.56;26.71
62864;BME280;48954;59.950;11.014;2023-05-25T11:45:27;100310.17;;;17.75;26.24
62864;BME280;48954;59.950;11.014;2023-05-25T11:47:56;100305.55;;;17.76;25.89
62864;BME280;48954;59.950;11.014;2023-05-25T11:50:23;100294.09;;;17.70;26.19
62864;BME280;48954;59.950;11.014;2023-05-25T11:52:49;100284.93;;;17.66;26.26
62864;BME280;48954;59.950;11.014;2023-05-25T11:55:16;100292.96;;;17.66;26.04
62864;BME280;48954;59.950;11.014;2023-05-25T11:57:43;100290.35;;;17.75;26.45
62864;BME280;48954;59.950;11.014;2023-05-25T12:00:11;100278.95;;;18.04;26.17
62864;BME280;48954;59.950;11.014;2023-05-25T12:02:38;100280.30;;;18.00;26.08
62864;BME280;48954;59.950;11.014;2023-05-25T12:05:05;100291.59;;;17.97;26.29
62864;BME280;48954;59.950;11.014;2023-05-25T12:07:33;100299.84;;;17.86;25.68
62864;BME280;48954;59.950;11.014;2023-05-25T12:10:10;100299.67;;;17.80;26.17
62864;BME280;48954;59.950;11.014;2023-05-25T12:12:42;100302.52;;;17.73;25.74
62864;BME280;48954;59.950;11.014;2023-05-25T12:15:11;100295.41;;;17.64;25.81
62864;BME280;48954;59.950;11.014;2023-05-25T12:17:43;100282.15;;;17.64;25.96
62864;BME280;48954;59.950;11.014;2023-05-25T12:20:12;100282.02;;;17.81;26.40
62864;BME280;48954;59.950;11.014;2023-05-25T12:22:39;100287.50;;;17.72;25.97
62864;BME280;48954;59.950;11.014;2023-05-25T12:25:06;100296.05;;;17.63;26.07
62864;BME280;48954;59.950;11.014;2023-05-25T12:27:33;100278.58;;;17.69;26.07
62864;BME280;48954;59.950;11.014;2023-05-25T12:30:00;100255.89;;;17.59;25.90
62864;BME280;48954;59.950;11.014;2023-05-25T12:32:27;100251.02;;;17.53;25.92
62864;BME280;48954;59.950;11.014;2023-05-25T12:35:06;100250.70;;;17.52;26.10
62864;BME280;48954;59.950;11.014;2023-05-25T12:37:33;100242.69;;;17.58;26.55
62864;BME280;48954;59.950;11.014;2023-05-25T12:39:59;100241.80;;;17.70;26.40
62864;BME280;48954;59.950;11.014;2023-05-25T12:42:26;100252.78;;;17.78;26.41
62864;BME280;48954;59.950;11.014;2023-05-25T12:44:54;100250.79;;;17.77;26.55
62864;BME280;48954;59.950;11.014;2023-05-25T12:47:21;100255.39;;;17.73;26.59
62864;BME280;48954;59.950;11.014;2023-05-25T12:49:52;100249.65;;;17.67;26.67
62864;BME280;48954;59.950;11.014;2023-05-25T12:52:37;100252.77;;;17.75;26.95